Time;durP1;ratioP1;P1;durP2;ratioP2;P2;SDS_P1;SDS_P2;PMS_P1;PMS_P2;Temp;Humidity;BMP_temperature;BMP_pressure;BME280_temperature;BME280_humidity;BME280_pressure;Samples;Min_cycle;Max_cycle;Signal;HPM_P1;HPM_P2
2022/10/25 00:02:22;;;;;;;8.13;5.33;;;;;;;14.96;52.46;101476.59;5016606;28;20389;-77
2022/10/25 00:04:48;;;;;;;8.73;5.80;;;;;;;14.99;52.53;101470.06;5035924;28;20393;-77
2022/10/25 00:07:13;;;;;;;9.85;6.07;;;;;;;15.05;52.50;101480.00;5035971;28;20382;-77
2022/10/25 00:09:39;;;;;;;9.10;6.03;;;;;;;14.99;52.21;101470.06;5037705;28;20434;-77
2022/10/25 00:12:06;;;;;;;9.55;6.13;;;;;;;15.01;52.41;101468.88;5041600;28;20378;-78
2022/10/25 00:14:31;;;;;;;8.88;6.30;;;;;;;15.04;52.15;101471.19;5034236;28;20873;-77
2022/10/25 00:16:57;;;;;;;10.30;6.10;;;;;;;15.05;52.05;101464.00;5035165;28;20419;-77
2022/10/25 00:19:22;;;;;;;9.23;5.88;;;;;;;15.10;51.84;101470.44;5017731;28;20444;-77
2022/10/25 00:21:48;;;;;;;10.53;5.90;;;;;;;15.07;51.86;101467.31;5035505;28;20481;-77
2022/10/25 00:24:14;;;;;;;10.32;5.95;;;;;;;15.04;52.33;101467.69;5035238;28;20457;-77
2022/10/25 00:26:40;;;;;;;10.17;5.70;;;;;;;14.88;52.59;101458.81;5033601;28;20455;-76
2022/10/25 00:29:07;;;;;;;12.00;6.10;;;;;;;14.93;52.59;101460.09;5032343;28;20417;-77
2022/10/25 00:31:32;;;;;;;9.23;5.80;;;;;;;14.82;52.85;101456.00;5032290;28;20894;-77
2022/10/25 00:33:58;;;;;;;12.80;6.23;;;;;;;14.68;53.11;101460.31;5031972;28;20378;-77
2022/10/25 00:36:25;;;;;;;10.13;6.10;;;;;;;14.61;53.41;101462.03;5032207;28;20385;-78
2022/10/25 00:38:52;;;;;;;10.23;5.85;;;;;;;14.62;53.48;101453.88;5028049;28;20407;-77
2022/10/25 00:41:20;;;;;;;10.75;6.05;;;;;;;14.67;53.14;101447.97;5025427;28;20510;-78
2022/10/25 00:43:48;;;;;;;12.07;5.82;;;;;;;14.80;52.75;101450.88;5032673;28;21187;-78
2022/10/25 00:46:17;;;;;;;10.20;6.30;;;;;;;14.82;52.87;101438.19;5021417;28;20803;-78
2022/10/25 00:48:52;;;;;;;9.93;6.03;;;;;;;14.85;52.87;101434.31;5029653;28;20378;-77
2022/10/25 00:51:19;;;;;;;10.43;6.53;;;;;;;14.81;52.91;101417.81;5033371;28;20789;-77
2022/10/25 00:53:44;;;;;;;10.65;5.65;;;;;;;14.89;52.75;101422.25;5032539;28;20465;-78
2022/10/25 00:56:18;;;;;;;10.93;6.40;;;;;;;14.88;52.60;101423.28;5032528;28;20476;-77
2022/10/25 00:58:49;;;;;;;8.25;5.97;;;;;;;14.85;52.82;101421.78;5013901;28;20384;-78
2022/10/25 01:01:15;;;;;;;24.90;11.85;;;;;;;14.82;52.58;101432.00;5022101;28;20507;-77
2022/10/25 01:03:43;;;;;;;18.40;9.07;;;;;;;14.68;53.03;101434.44;5026481;28;20704;-77
2022/10/25 01:06:17;;;;;;;8.97;5.60;;;;;;;14.54;53.46;101432.53;5031887;28;20747;-77
2022/10/25 01:08:45;;;;;;;12.55;6.28;;;;;;;14.50;53.55;101429.38;5033164;28;20451;-77
2022/10/25 01:11:11;;;;;;;15.05;8.07;;;;;;;14.53;53.42;101422.84;5030572;28;20378;-78
2022/10/25 01:13:37;;;;;;;10.15;6.03;;;;;;;14.40;54.14;101427.97;5019394;28;20391;-78
2022/10/25 01:16:21;;;;;;;16.10;6.65;;;;;;;14.22;54.70;101417.59;5014068;28;20390;-78
2022/10/25 01:19:26;;;;;;;12.02;6.40;;;;;;;14.29;54.13;101405.22;5031513;28;20371;-77
2022/10/25 01:22:01;;;;;;;12.90;6.03;;;;;;;14.48;53.91;101402.06;5031859;28;20780;-78
2022/10/25 01:24:27;;;;;;;8.37;6.10;;;;;;;14.52;53.40;101397.19;5031489;28;20456;-77
2022/10/25 01:27:17;;;;;;;8.80;5.67;;;;;;;14.55;53.46;101394.19;5016321;28;20390;-78
2022/10/25 01:30:06;;;;;;;8.45;6.40;;;;;;;14.60;53.26;101399.00;5019747;28;20378;-77
2022/10/25 01:32:41;;;;;;;9.77;6.07;;;;;;;14.60;53.03;101389.16;5033526;28;20394;-77
2022/10/25 01:35:25;;;;;;;9.82;6.47;;;;;;;14.56;53.06;101384.34;5016369;28;20819;-77
2022/10/25 01:38:09;;;;;;;23.30;13.60;;;;;;;14.49;53.31;101392.22;5012434;28;20388;-78
2022/10/25 01:41:07;;;;;;;13.87;7.27;;;;;;;14.39;53.73;101391.66;5019005;28;20410;-77
2022/10/25 01:43:38;;;;;;;11.23;6.47;;;;;;;14.39;53.39;101386.31;5031144;28;20374;-78
2022/10/25 01:46:22;;;;;;;13.68;7.05;;;;;;;14.29;53.66;101384.69;5031866;28;20389;-77
2022/10/25 01:48:58;;;;;;;12.60;8.57;;;;;;;14.32;53.85;101380.84;5031108;28;20382;-78
2022/10/25 01:51:27;;;;;;;11.05;7.32;;;;;;;14.32;53.65;101381.69;5031710;28;20926;-77
2022/10/25 01:53:52;;;;;;;11.10;6.30;;;;;;;14.25;53.74;101380.72;5031364;28;20859;-77
2022/10/25 01:56:28;;;;;;;8.20;5.50;;;;;;;14.30;53.81;101375.69;5030700;28;20385;-78
2022/10/25 01:59:23;;;;;;;9.40;5.95;;;;;;;14.37;53.41;101366.97;5031305;28;20473;-78
2022/10/25 02:02:06;;;;;;;10.65;6.15;;;;;;;14.39;53.40;101362.31;5030027;28;20806;-78
2022/10/25 02:04:49;;;;;;;8.98;5.68;;;;;;;14.37;53.54;101364.31;5031409;28;20866;-77
2022/10/25 02:07:18;;;;;;;8.75;5.88;;;;;;;14.33;53.55;101355.81;5028646;28;20965;-78
2022/10/25 02:09:58;;;;;;;9.88;6.05;;;;;;;14.39;53.39;101363.13;5020435;28;20712;-78
2022/10/25 02:12:29;;;;;;;12.07;7.97;;;;;;;14.44;53.33;101365.25;5014469;28;20477;-78
2022/10/25 02:15:09;;;;;;;20.43;11.40;;;;;;;14.40;53.19;101356.78;5017771;28;20389;-78
2022/10/25 02:17:41;;;;;;;9.25;5.80;;;;;;;14.37;53.22;101365.16;5031230;28;20446;-77
2022/10/25 02:20:08;;;;;;;9.27;5.65;;;;;;;14.26;53.44;101353.06;5025957;28;20487;-77
2022/10/25 02:22:34;;;;;;;10.73;5.70;;;;;;;14.23;53.64;101355.25;5017086;28;20380;-78
2022/10/25 02:25:00;;;;;;;11.23;6.40;;;;;;;14.21;53.87;101360.78;5037790;28;20417;-78
2022/10/25 02:27:27;;;;;;;9.43;6.50;;;;;;;14.21;53.53;101354.63;5039334;28;20394;-78
2022/10/25 02:29:55;;;;;;;10.80;5.95;;;;;;;14.27;53.40;101353.88;5039781;28;20375;-78
2022/10/25 02:32:20;;;;;;;10.77;6.05;;;;;;;14.32;53.38;101364.84;5014388;28;20388;-78
2022/10/25 02:34:47;;;;;;;9.55;6.35;;;;;;;14.22;53.92;101372.25;5034108;28;20726;-78
2022/10/25 02:37:12;;;;;;;9.47;5.67;;;;;;;13.87;55.06;101379.81;5037456;28;20481;-78
2022/10/25 02:39:38;;;;;;;8.70;5.37;;;;;;;13.60;55.81;101389.94;5043236;28;20429;-77
2022/10/25 02:42:04;;;;;;;9.00;5.57;;;;;;;13.44;56.60;101390.84;5040635;28;20476;-78
2022/10/25 02:44:30;;;;;;;8.38;5.43;;;;;;;13.33;56.80;101384.03;5024446;28;20843;-78
2022/10/25 02:46:56;;;;;;;9.20;4.97;;;;;;;13.31;56.65;101386.06;5020043;28;20528;-78
2022/10/25 02:49:22;;;;;;;9.47;4.60;;;;;;;13.23;56.92;101386.03;5034781;28;20382;-79
2022/10/25 02:51:47;;;;;;;8.10;4.93;;;;;;;13.18;57.28;101399.03;5017136;28;20398;-78
2022/10/25 02:54:13;;;;;;;7.85;4.95;;;;;;;13.01;57.87;101401.72;5010458;28;20400;-77
2022/10/25 02:56:38;;;;;;;7.17;4.80;;;;;;;13.06;57.47;101406.56;5016552;28;20379;-76
2022/10/25 02:59:05;;;;;;;8.32;5.32;;;;;;;13.05;57.58;101418.19;5049721;28;20391;-76
2022/10/25 03:01:30;;;;;;;8.60;5.03;;;;;;;13.12;57.18;101418.34;5048456;28;20421;-78
2022/10/25 03:03:56;;;;;;;9.85;5.15;;;;;;;13.24;56.76;101417.00;5053175;28;20429;-77
2022/10/25 03:06:22;;;;;;;8.38;5.45;;;;;;;13.23;56.80;101417.16;5052526;28;20378;-77
2022/10/25 03:08:47;;;;;;;8.70;5.50;;;;;;;13.21;56.89;101417.31;5037174;28;20391;-76
2022/10/25 03:11:14;;;;;;;7.43;5.37;;;;;;;13.23;56.79;101415.31;5050821;28;20498;-76
2022/10/25 03:13:40;;;;;;;10.10;5.35;;;;;;;13.27;56.56;101398.03;5031928;28;20383;-76
2022/10/25 03:16:06;;;;;;;14.50;12.27;;;;;;;13.42;55.89;101400.00;5034950;28;20401;-76
2022/10/25 03:18:32;;;;;;;10.35;5.95;;;;;;;13.50;55.65;101398.13;5047526;28;20468;-76
2022/10/25 03:20:59;;;;;;;7.85;5.70;;;;;;;13.45;55.34;101389.84;5049437;28;20407;-76
2022/10/25 03:23:25;;;;;;;10.02;5.38;;;;;;;13.52;55.37;101395.28;5050840;28;20384;-77
2022/10/25 03:25:52;;;;;;;9.13;5.70;;;;;;;13.38;55.77;101395.03;5038344;28;20416;-76
2022/10/25 03:28:19;;;;;;;12.02;6.40;;;;;;;13.28;56.20;101380.22;5033023;28;20392;-76
2022/10/25 03:30:44;;;;;;;10.80;5.93;;;;;;;13.23;55.95;101395.84;5034218;28;20375;-77
2022/10/25 03:33:10;;;;;;;12.57;6.72;;;;;;;13.13;56.58;101401.38;5015341;28;20422;-76
2022/10/25 03:35:37;;;;;;;15.60;7.90;;;;;;;13.20;56.52;101399.72;5055830;28;20374;-75
2022/10/25 03:38:02;;;;;;;13.10;9.02;;;;;;;13.19;56.18;101390.88;5048619;28;20382;-75
2022/10/25 03:40:28;;;;;;;11.27;8.27;;;;;;;13.30;55.94;101394.19;5032532;28;20402;-76
2022/10/25 03:42:53;;;;;;;11.80;7.77;;;;;;;13.27;56.05;101400.69;5049963;28;20401;-76
2022/10/25 03:45:19;;;;;;;10.35;7.10;;;;;;;12.96;56.86;101390.78;5050147;28;20378;-76
2022/10/25 03:47:45;;;;;;;10.83;6.83;;;;;;;12.93;56.97;101392.94;5022709;28;20507;-76
2022/10/25 03:50:10;;;;;;;10.03;6.77;;;;;;;12.99;56.71;101392.25;5013811;28;20442;-75
2022/10/25 03:52:36;;;;;;;12.20;6.80;;;;;;;13.17;56.33;101398.19;5043989;28;20387;-76
2022/10/25 03:55:03;;;;;;;13.88;7.55;;;;;;;13.22;56.17;101399.50;5003556;28;20415;-77
2022/10/25 03:57:28;;;;;;;12.15;7.00;;;;;;;13.25;56.09;101402.66;5049224;28;20897;-76
2022/10/25 03:59:54;;;;;;;12.50;7.00;;;;;;;13.28;55.97;101393.53;5053969;28;20414;-76
2022/10/25 04:02:23;;;;;;;11.73;7.43;;;;;;;13.33;55.63;101385.88;5048891;28;20392;-76
2022/10/25 04:04:48;;;;;;;11.23;6.90;;;;;;;13.38;55.45;101397.69;5025212;28;20403;-77
2022/10/25 04:07:14;;;;;;;11.83;7.10;;;;;;;13.41;55.18;101393.00;5047962;28;20397;-77
2022/10/25 04:09:39;;;;;;;14.05;10.10;;;;;;;13.43;55.21;101383.00;5048830;28;20378;-77
2022/10/25 04:12:05;;;;;;;12.13;8.23;;;;;;;13.41;54.85;101363.72;5043447;28;20387;-77
2022/10/25 04:14:31;;;;;;;11.60;7.43;;;;;;;13.39;54.90;101372.69;5024219;28;20441;-78
2022/10/25 04:16:56;;;;;;;11.63;7.73;;;;;;;13.37;54.93;101365.91;5031542;28;20372;-78
2022/10/25 04:19:23;;;;;;;11.10;7.18;;;;;;;13.36;55.31;101378.38;5008292;28;20382;-77
2022/10/25 04:21:48;;;;;;;10.73;7.17;;;;;;;13.42;54.99;101370.72;5026209;28;20384;-76
2022/10/25 04:24:15;;;;;;;13.30;7.63;;;;;;;13.44;54.94;101374.03;5023972;28;20426;-76
2022/10/25 04:26:41;;;;;;;14.10;8.70;;;;;;;13.32;55.08;101368.25;4987419;28;20409;-77
2022/10/25 04:29:07;;;;;;;14.65;7.82;;;;;;;13.28;55.26;101369.56;5052017;28;20409;-77
2022/10/25 04:31:33;;;;;;;16.90;8.25;;;;;;;13.27;55.34;101370.53;5045330;28;20384;-76
2022/10/25 04:33:58;;;;;;;13.10;8.47;;;;;;;13.25;55.34;101365.38;5029496;28;20389;-77
2022/10/25 04:36:28;;;;;;;13.87;8.40;;;;;;;13.27;55.72;101351.91;5034960;28;20391;-76
2022/10/25 04:38:53;;;;;;;15.53;9.47;;;;;;;13.34;55.44;101360.91;5037768;28;20388;-76
2022/10/25 04:41:21;;;;;;;18.10;9.70;;;;;;;13.35;55.26;101366.06;5047805;28;20414;-77
2022/10/25 04:43:47;;;;;;;17.52;9.95;;;;;;;13.43;54.93;101370.50;5036694;28;20401;-78
2022/10/25 04:46:14;;;;;;;17.90;9.93;;;;;;;13.37;54.98;101376.53;5035696;28;20484;-78
2022/10/25 04:48:40;;;;;;;18.20;9.27;;;;;;;13.36;55.14;101367.72;5046139;28;20387;-78
2022/10/25 04:51:08;;;;;;;18.85;9.60;;;;;;;13.45;54.78;101368.53;5034439;28;20386;-77
2022/10/25 04:53:33;;;;;;;22.48;9.88;;;;;;;13.50;54.81;101362.66;5050887;28;20355;-78
2022/10/25 04:56:05;;;;;;;20.08;10.45;;;;;;;13.48;54.89;101378.81;5049613;28;20378;-79
2022/10/25 04:58:38;;;;;;;23.92;11.00;;;;;;;13.35;55.32;101371.38;5036567;28;20388;-82
2022/10/25 05:01:09;;;;;;;23.03;9.00;;;;;;;13.44;54.93;101374.84;5042300;28;20496;-78
2022/10/25 05:03:36;;;;;;;17.95;10.00;;;;;;;13.29;55.52;101377.38;5037438;28;20398;-78
2022/10/25 05:06:07;;;;;;;24.25;10.68;;;;;;;13.19;55.83;101385.53;5043454;28;20374;-77
2022/10/25 05:08:38;;;;;;;26.10;13.82;;;;;;;13.11;56.39;101387.41;5055138;28;20390;-78
2022/10/25 05:11:04;;;;;;;32.38;16.88;;;;;;;13.03;56.64;101390.91;5038047;28;20382;-79
2022/10/25 05:13:40;;;;;;;29.10;14.95;;;;;;;12.94;56.89;101382.09;5045127;28;20408;-78
2022/10/25 05:16:06;;;;;;;25.95;14.70;;;;;;;13.10;56.58;101383.09;5049700;28;20383;-78
2022/10/25 05:18:34;;;;;;;39.15;15.23;;;;;;;13.19;56.25;101390.03;5020619;28;20398;-78
2022/10/25 05:21:23;;;;;;;37.90;14.52;;;;;;;13.19;56.08;101372.22;5022574;28;20396;-79
2022/10/25 05:23:49;;;;;;;27.95;13.88;;;;;;;13.27;56.05;101390.03;4987443;28;20808;-78
2022/10/25 05:26:22;;;;;;;29.13;13.93;;;;;;;13.19;56.17;101393.53;5019771;28;20394;-78
2022/10/25 05:28:52;;;;;;;27.47;14.00;;;;;;;13.26;55.74;101390.19;5010131;28;20396;-78
2022/10/25 05:31:21;;;;;;;32.95;15.10;;;;;;;13.35;55.41;101383.88;5026885;28;20384;-80
2022/10/25 05:33:52;;;;;;;32.38;14.90;;;;;;;13.34;55.76;101387.53;5015028;28;20394;-79
2022/10/25 05:36:23;;;;;;;26.20;14.77;;;;;;;13.36;55.91;101397.03;5033678;28;20412;-78
2022/10/25 05:38:56;;;;;;;22.98;13.75;;;;;;;13.32;55.83;101390.34;5014139;28;20374;-79
2022/10/25 05:41:24;;;;;;;26.83;14.35;;;;;;;13.38;55.82;101387.03;5009295;28;20426;-78
2022/10/25 05:43:51;;;;;;;31.13;14.18;;;;;;;13.41;55.79;101385.03;5006114;28;20390;-78
2022/10/25 05:46:20;;;;;;;28.25;14.68;;;;;;;13.45;55.49;101395.16;5001497;28;20481;-80
2022/10/25 05:48:47;;;;;;;28.02;14.13;;;;;;;13.51;55.58;101399.78;4987747;28;20440;-79
2022/10/25 05:51:27;;;;;;;26.42;14.02;;;;;;;13.48;55.67;101407.28;5034071;28;20558;-79
2022/10/25 05:54:14;;;;;;;24.73;13.10;;;;;;;13.44;55.83;101420.13;5030404;28;20429;-78
2022/10/25 05:56:41;;;;;;;27.02;13.43;;;;;;;13.50;55.68;101421.28;4997872;28;20428;-79
2022/10/25 05:59:11;;;;;;;26.27;13.07;;;;;;;13.51;55.53;101428.28;5004598;28;20403;-80
2022/10/25 06:01:50;;;;;;;25.50;14.73;;;;;;;13.27;56.49;101429.97;5002483;28;20433;-79
2022/10/25 06:04:21;;;;;;;30.30;15.88;;;;;;;13.22;57.24;101442.97;5058271;23;20424;-80
2022/10/25 06:06:50;;;;;;;32.95;15.98;;;;;;;13.34;57.01;101446.97;5042491;28;20413;-79
2022/10/25 06:09:16;;;;;;;23.10;14.75;;;;;;;13.57;56.52;101432.91;5023869;28;20437;-79
2022/10/25 06:11:44;;;;;;;28.75;14.20;;;;;;;13.68;55.77;101437.84;5058622;28;20384;-79
2022/10/25 06:14:10;;;;;;;40.63;17.60;;;;;;;13.76;55.72;101439.66;5042684;28;20472;-79
2022/10/25 06:16:56;;;;;;;32.37;15.20;;;;;;;13.77;55.61;101438.66;5050272;28;20396;-79
2022/10/25 06:19:22;;;;;;;41.88;16.17;;;;;;;13.91;55.58;101442.44;5056645;28;20384;-79
2022/10/25 06:21:57;;;;;;;39.67;15.80;;;;;;;13.96;55.64;101440.06;5042191;28;20382;-79
2022/10/25 06:24:25;;;;;;;39.27;14.17;;;;;;;14.01;55.28;101436.88;5044441;28;20440;-79
2022/10/25 06:26:52;;;;;;;30.23;14.88;;;;;;;14.12;55.50;101426.66;5076799;28;20396;-80
2022/10/25 06:29:35;;;;;;;32.50;15.20;;;;;;;14.21;55.29;101438.09;5059814;28;20389;-80
2022/10/25 06:32:02;;;;;;;26.33;15.05;;;;;;;14.29;55.03;101440.69;5058066;28;20388;-80
2022/10/25 06:34:28;;;;;;;33.78;15.43;;;;;;;14.33;55.02;101447.38;5046148;28;20386;-80
2022/10/25 06:36:53;;;;;;;28.75;15.40;;;;;;;14.35;55.16;101447.19;5054729;28;20399;-79
2022/10/25 06:39:24;;;;;;;31.27;15.03;;;;;;;14.47;55.38;101452.94;5062523;28;20427;-80
2022/10/25 06:41:58;;;;;;;45.90;15.47;;;;;;;14.50;55.05;101457.91;5059249;28;20403;-79
2022/10/25 06:44:29;;;;;;;29.42;15.40;;;;;;;14.56;55.57;101459.84;5056782;28;20420;-80
2022/10/25 06:47:03;;;;;;;29.48;14.13;;;;;;;14.60;55.37;101465.69;5059077;28;20499;-80
2022/10/25 06:49:29;;;;;;;27.67;13.68;;;;;;;14.74;55.35;101467.59;5074502;28;20393;-78
2022/10/25 06:51:54;;;;;;;25.70;13.43;;;;;;;14.85;55.40;101469.00;5021374;28;20393;-78
2022/10/25 06:54:20;;;;;;;24.33;13.60;;;;;;;14.90;55.14;101456.78;5063326;28;20427;-80
2022/10/25 06:56:47;;;;;;;29.55;13.93;;;;;;;14.93;55.38;101454.75;5033493;28;20397;-79
2022/10/25 06:59:16;;;;;;;29.05;13.85;;;;;;;15.07;54.82;101460.16;5069144;28;20413;-81
2022/10/25 07:01:42;;;;;;;28.92;13.00;;;;;;;15.10;54.99;101453.59;5025264;28;20394;-80
2022/10/25 07:04:09;;;;;;;22.83;12.03;;;;;;;15.19;54.88;101454.34;5043444;28;20418;-79
2022/10/25 07:06:36;;;;;;;20.02;12.00;;;;;;;15.30;54.67;101453.91;5020740;28;20473;-78
2022/10/25 07:09:11;;;;;;;21.73;12.47;;;;;;;15.40;54.66;101456.31;5061886;28;20371;-80
2022/10/25 07:11:37;;;;;;;20.70;11.75;;;;;;;15.39;54.83;101444.78;5062400;28;20512;-80
2022/10/25 07:14:44;;;;;;;16.90;11.23;;;;;;;15.54;54.73;101452.81;5058347;28;20374;-79
2022/10/25 07:17:54;;;;;;;60.15;36.05;;;;;;;15.67;54.26;101454.84;5073725;28;20384;-82
2022/10/25 07:20:41;;;;;;;18.77;10.75;;;;;;;15.72;54.62;101457.78;5040200;28;20422;-80
2022/10/25 07:23:10;;;;;;;41.97;12.40;;;;;;;15.81;54.30;101453.19;5058511;28;20390;-80
2022/10/25 07:25:40;;;;;;;33.75;22.33;;;;;;;15.93;54.06;101449.00;5041775;28;20382;-80
2022/10/25 07:28:26;;;;;;;17.77;11.18;;;;;;;15.91;53.94;101444.88;5068548;28;20408;-80
2022/10/25 07:31:16;;;;;;;16.58;10.73;;;;;;;16.03;53.82;101446.06;5019391;28;20417;-81
2022/10/25 07:33:57;;;;;;;44.05;29.08;;;;;;;16.23;53.51;101452.44;5018660;28;20424;-81
2022/10/25 07:36:52;;;;;;;20.17;11.02;;;;;;;16.30;53.59;101452.53;5003438;28;20416;-80
2022/10/25 07:39:18;;;;;;;19.38;12.98;;;;;;;16.47;53.15;101442.41;5024642;28;20407;-82
2022/10/25 07:42:07;;;;;;;27.58;17.75;;;;;;;16.56;52.95;101441.25;5061905;23;20427;-81
2022/10/25 07:44:35;;;;;;;69.70;48.67;;;;;;;16.57;52.93;101442.09;5037648;28;20396;-81
2022/10/25 07:47:04;;;;;;;20.98;10.85;;;;;;;16.62;53.36;101437.81;5038039;28;20368;-80
2022/10/25 07:49:59;;;;;;;18.23;10.27;;;;;;;16.83;52.80;101444.19;5011396;28;20406;-82
2022/10/25 07:53:03;;;;;;;23.77;9.73;;;;;;;16.97;52.19;101432.56;5025424;28;20400;-81
2022/10/25 07:55:37;;;;;;;59.40;43.88;;;;;;;17.00;52.16;101432.19;5031390;28;20437;-80
2022/10/25 07:58:06;;;;;;;21.83;10.85;;;;;;;17.02;52.33;101433.84;5020132;28;20381;-81
2022/10/25 08:00:35;;;;;;;17.25;9.95;;;;;;;17.07;52.06;101442.97;5016152;28;20423;-80
2022/10/25 08:03:01;;;;;;;60.37;44.93;;;;;;;17.13;51.81;101441.34;5021088;28;20396;-79
2022/10/25 08:05:27;;;;;;;49.37;36.47;;;;;;;17.16;51.66;101432.91;5036634;28;20400;-80
2022/10/25 08:07:54;;;;;;;20.73;9.13;;;;;;;17.24;51.80;101438.13;5036474;28;20368;-78
2022/10/25 08:10:20;;;;;;;22.48;13.27;;;;;;;17.40;51.44;101436.97;5036213;28;20467;-78
2022/10/25 08:12:48;;;;;;;17.42;9.68;;;;;;;17.56;51.14;101438.50;5037033;28;20388;-81
2022/10/25 08:15:34;;;;;;;15.05;9.80;;;;;;;17.67;50.83;101429.91;5036823;28;20410;-80
2022/10/25 08:18:02;;;;;;;15.98;8.68;;;;;;;17.71;50.91;101428.47;5027476;28;20453;-79
2022/10/25 08:20:28;;;;;;;19.67;9.00;;;;;;;17.86;50.64;101424.84;5019560;28;20407;-79
2022/10/25 08:22:58;;;;;;;27.75;20.88;;;;;;;17.92;50.42;101427.56;5018024;28;20460;-79
2022/10/25 08:25:27;;;;;;;23.33;15.60;;;;;;;17.93;50.35;101431.91;5020231;28;20400;-81
2022/10/25 08:27:56;;;;;;;17.60;8.37;;;;;;;18.02;50.44;101426.34;5015166;28;20384;-79
2022/10/25 08:30:24;;;;;;;13.07;7.20;;;;;;;18.16;50.38;101411.94;5068437;28;20487;-80
2022/10/25 08:33:00;;;;;;;18.88;7.72;;;;;;;18.20;50.37;101413.16;5021207;28;20380;-80
2022/10/25 08:35:29;;;;;;;15.63;8.07;;;;;;;18.36;49.89;101411.16;5036956;28;20479;-79
2022/10/25 08:37:58;;;;;;;13.43;9.65;;;;;;;18.37;49.88;101418.19;5028559;28;20420;-79
2022/10/25 08:40:30;;;;;;;12.50;7.20;;;;;;;18.48;50.05;101414.88;5071565;23;20478;-80
2022/10/25 08:43:20;;;;;;;14.13;6.72;;;;;;;18.70;49.65;101413.63;5036872;28;20379;-80
2022/10/25 08:45:51;;;;;;;14.57;7.07;;;;;;;18.92;49.40;101416.13;5028347;28;20452;-80
2022/10/25 08:49:03;;;;;;;14.27;7.30;;;;;;;19.07;49.30;101411.38;5018595;28;20386;-81
2022/10/25 08:51:57;;;;;;;11.80;7.05;;;;;;;19.15;49.20;101404.13;5018555;28;20398;-81
2022/10/25 08:54:51;;;;;;;16.58;9.68;;;;;;;18.99;49.20;101405.38;5017827;28;20390;-81
2022/10/25 08:57:39;;;;;;;11.20;6.65;;;;;;;18.89;49.63;101393.22;5016459;28;20405;-80
2022/10/25 09:00:16;;;;;;;14.05;6.22;;;;;;;19.02;49.42;101399.59;5030987;28;20439;-80
2022/10/25 09:03:35;;;;;;;12.85;8.38;;;;;;;19.02;49.38;101394.22;5018537;28;20382;-82
2022/10/25 09:06:36;;;;;;;15.75;8.30;;;;;;;19.02;49.75;101394.22;5021216;28;20400;-81
2022/10/25 09:09:39;;;;;;;18.57;8.63;;;;;;;19.16;49.53;101395.84;5037377;28;20377;-81
2022/10/25 09:12:28;;;;;;;14.88;6.95;;;;;;;19.50;48.93;101393.91;4929868;29;20418;-81
2022/10/25 09:15:40;;;;;;;22.92;12.10;;;;;;;19.36;49.27;101397.66;4962931;28;20408;-80
2022/10/25 09:18:15;;;;;;;12.30;9.43;;;;;;;19.47;49.14;101392.44;5021911;28;20435;-81
2022/10/25 09:21:07;;;;;;;17.53;8.60;;;;;;;19.82;48.51;101375.16;5016184;28;20424;-80
2022/10/25 09:23:34;;;;;;;25.83;8.50;;;;;;;19.97;47.99;101364.94;5035690;28;20384;-80
2022/10/25 09:26:19;;;;;;;949.92;283.50;;;;;;;20.33;47.44;101367.97;5036645;28;20414;-81
